sensor_id;sensor_type;location;lat;lon;timestamp;temperature;humidity
1405;DHT22;697;51.114;6.542;2023-04-19T00:01:27;14.30;75.30
1405;DHT22;697;51.114;6.542;2023-04-19T00:03:56;14.30;75.40
1405;DHT22;697;51.114;6.542;2023-04-19T00:06:22;14.30;75.40
1405;DHT22;697;51.114;6.542;2023-04-19T00:08:50;14.20;75.60
1405;DHT22;697;51.114;6.542;2023-04-19T00:11:16;14.20;76.70
1405;DHT22;697;51.114;6.542;2023-04-19T00:13:43;14.20;76.00
1405;DHT22;697;51.114;6.542;2023-04-19T00:16:10;14.20;76.10
1405;DHT22;697;51.114;6.542;2023-04-19T00:18:36;14.20;76.50
1405;DHT22;697;51.114;6.542;2023-04-19T00:21:05;14.10;76.50
1405;DHT22;697;51.114;6.542;2023-04-19T00:23:32;14.10;76.80
1405;DHT22;697;51.114;6.542;2023-04-19T00:26:01;14.20;76.70
1405;DHT22;697;51.114;6.542;2023-04-19T00:28:28;14.10;76.70
1405;DHT22;697;51.114;6.542;2023-04-19T00:30:55;14.10;77.10
1405;DHT22;697;51.114;6.542;2023-04-19T00:33:22;14.10;77.20
1405;DHT22;697;51.114;6.542;2023-04-19T00:35:49;14.10;77.50
1405;DHT22;697;51.114;6.542;2023-04-19T00:38:17;14.10;77.40
1405;DHT22;697;51.114;6.542;2023-04-19T00:40:43;14.10;77.50
1405;DHT22;697;51.114;6.542;2023-04-19T00:43:11;14.10;77.60
1405;DHT22;697;51.114;6.542;2023-04-19T00:45:37;14.00;77.70
1405;DHT22;697;51.114;6.542;2023-04-19T00:48:04;14.00;78.10
1405;DHT22;697;51.114;6.542;2023-04-19T00:50:32;14.00;78.30
1405;DHT22;697;51.114;6.542;2023-04-19T00:53:00;13.90;78.60
1405;DHT22;697;51.114;6.542;2023-04-19T00:55:29;13.90;78.70
1405;DHT22;697;51.114;6.542;2023-04-19T00:57:56;14.00;78.80
1405;DHT22;697;51.114;6.542;2023-04-19T01:00:23;14.00;78.70
1405;DHT22;697;51.114;6.542;2023-04-19T01:02:49;14.00;79.00
1405;DHT22;697;51.114;6.542;2023-04-19T01:05:17;14.00;79.70
1405;DHT22;697;51.114;6.542;2023-04-19T01:07:44;14.00;79.10
1405;DHT22;697;51.114;6.542;2023-04-19T01:10:11;14.00;79.30
1405;DHT22;697;51.114;6.542;2023-04-19T01:12:39;14.00;79.60
1405;DHT22;697;51.114;6.542;2023-04-19T01:15:07;14.00;79.70
1405;DHT22;697;51.114;6.542;2023-04-19T01:17:34;14.00;80.00
1405;DHT22;697;51.114;6.542;2023-04-19T01:20:02;13.90;80.10
1405;DHT22;697;51.114;6.542;2023-04-19T01:22:31;13.90;80.20
1405;DHT22;697;51.114;6.542;2023-04-19T01:24:58;13.90;80.50
1405;DHT22;697;51.114;6.542;2023-04-19T01:27:25;13.90;80.90
1405;DHT22;697;51.114;6.542;2023-04-19T01:29:52;13.90;80.90
1405;DHT22;697;51.114;6.542;2023-04-19T01:32:18;13.90;80.90
1405;DHT22;697;51.114;6.542;2023-04-19T01:34:46;13.90;81.30
1405;DHT22;697;51.114;6.542;2023-04-19T01:37:13;13.90;81.20
1405;DHT22;697;51.114;6.542;2023-04-19T01:39:41;13.90;82.00
1405;DHT22;697;51.114;6.542;2023-04-19T01:42:08;13.90;81.40
1405;DHT22;697;51.114;6.542;2023-04-19T01:44:35;13.90;81.50
1405;DHT22;697;51.114;6.542;2023-04-19T01:47:01;13.90;81.60
1405;DHT22;697;51.114;6.542;2023-04-19T01:49:28;13.90;81.50
1405;DHT22;697;51.114;6.542;2023-04-19T01:51:55;13.80;81.90
1405;DHT22;697;51.114;6.542;2023-04-19T01:54:22;13.80;81.90
1405;DHT22;697;51.114;6.542;2023-04-19T01:56:50;13.80;82.10
1405;DHT22;697;51.114;6.542;2023-04-19T01:59:16;13.80;82.30
1405;DHT22;697;51.114;6.542;2023-04-19T02:01:43;13.80;82.70
1405;DHT22;697;51.114;6.542;2023-04-19T02:04:10;13.80;82.80
1405;DHT22;697;51.114;6.542;2023-04-19T02:06:36;13.80;83.00
1405;DHT22;697;51.114;6.542;2023-04-19T02:09:03;13.80;83.10
1405;DHT22;697;51.114;6.542;2023-04-19T02:11:30;13.80;83.30
1405;DHT22;697;51.114;6.542;2023-04-19T02:13:58;13.80;83.60
1405;DHT22;697;51.114;6.542;2023-04-19T02:16:24;13.80;83.70
1405;DHT22;697;51.114;6.542;2023-04-19T02:18:51;13.70;84.20
1405;DHT22;697;51.114;6.542;2023-04-19T02:21:18;13.70;84.50
1405;DHT22;697;51.114;6.542;2023-04-19T02:23:44;13.70;84.50
1405;DHT22;697;51.114;6.542;2023-04-19T02:26:11;13.70;85.60
1405;DHT22;697;51.114;6.542;2023-04-19T02:28:38;13.70;85.00
1405;DHT22;697;51.114;6.542;2023-04-19T02:31:06;13.70;85.10
1405;DHT22;697;51.114;6.542;2023-04-19T02:33:33;13.60;85.10
1405;DHT22;697;51.114;6.542;2023-04-19T02:35:59;13.60;85.30
1405;DHT22;697;51.114;6.542;2023-04-19T02:38:26;13.60;85.90
1405;DHT22;697;51.114;6.542;2023-04-19T02:40:53;13.60;86.20
1405;DHT22;697;51.114;6.542;2023-04-19T02:43:20;13.60;86.50
1405;DHT22;697;51.114;6.542;2023-04-19T02:45:46;13.50;87.40
1405;DHT22;697;51.114;6.542;2023-04-19T02:48:14;13.50;87.70
1405;DHT22;697;51.114;6.542;2023-04-19T02:50:41;13.50;88.20
1405;DHT22;697;51.114;6.542;2023-04-19T02:53:08;13.50;88.60
1405;DHT22;697;51.114;6.542;2023-04-19T02:55:34;13.50;88.80
1405;DHT22;697;51.114;6.542;2023-04-19T02:58:01;13.50;89.10
1405;DHT22;697;51.114;6.542;2023-04-19T03:00:28;13.50;89.20
1405;DHT22;697;51.114;6.542;2023-04-19T03:02:55;13.40;89.30
1405;DHT22;697;51.114;6.542;2023-04-19T03:05:23;13.50;89.60
1405;DHT22;697;51.114;6.542;2023-04-19T03:07:50;13.40;89.90
1405;DHT22;697;51.114;6.542;2023-04-19T03:10:17;13.50;90.00
1405;DHT22;697;51.114;6.542;2023-04-19T03:12:43;13.40;90.10
1405;DHT22;697;51.114;6.542;2023-04-19T03:15:10;13.40;90.30
1405;DHT22;697;51.114;6.542;2023-04-19T03:17:37;13.40;90.50
1405;DHT22;697;51.114;6.542;2023-04-19T03:20:04;13.40;90.70
1405;DHT22;697;51.114;6.542;2023-04-19T03:22:37;13.40;90.80
1405;DHT22;697;51.114;6.542;2023-04-19T03:25:04;13.40;90.90
1405;DHT22;697;51.114;6.542;2023-04-19T03:27:33;13.40;91.10
1405;DHT22;697;51.114;6.542;2023-04-19T03:29:59;13.40;91.20
1405;DHT22;697;51.114;6.542;2023-04-19T03:32:26;13.40;91.20
1405;DHT22;697;51.114;6.542;2023-04-19T03:34:53;13.40;91.20
1405;DHT22;697;51.114;6.542;2023-04-19T03:37:19;13.40;91.20
1405;DHT22;697;51.114;6.542;2023-04-19T03:39:47;13.40;91.10
1405;DHT22;697;51.114;6.542;2023-04-19T03:42:14;13.40;91.10
1405;DHT22;697;51.114;6.542;2023-04-19T03:44:41;13.40;91.20
1405;DHT22;697;51.114;6.542;2023-04-19T03:47:07;13.40;91.30
1405;DHT22;697;51.114;6.542;2023-04-19T03:49:34;13.40;91.20
1405;DHT22;697;51.114;6.542;2023-04-19T03:52:01;13.40;91.20
1405;DHT22;697;51.114;6.542;2023-04-19T03:54:27;13.30;91.20
1405;DHT22;697;51.114;6.542;2023-04-19T03:56:55;13.40;91.20
1405;DHT22;697;51.114;6.542;2023-04-19T03:59:23;13.40;91.60
1405;DHT22;697;51.114;6.542;2023-04-19T04:01:49;13.40;91.30
1405;DHT22;697;51.114;6.542;2023-04-19T04:04:16;13.40;91.30
1405;DHT22;697;51.114;6.542;2023-04-19T04:06:43;13.40;91.30
1405;DHT22;697;51.114;6.542;2023-04-19T04:09:10;13.40;91.20
1405;DHT22;697;51.114;6.542;2023-04-19T04:11:36;13.40;91.20
1405;DHT22;697;51.114;6.542;2023-04-19T04:14:05;13.40;91.10
1405;DHT22;697;51.114;6.542;2023-04-19T04:16:32;13.40;91.10
1405;DHT22;697;51.114;6.542;2023-04-19T04:18:58;13.40;91.10
1405;DHT22;697;51.114;6.542;2023-04-19T04:21:25;13.40;91.00
1405;DHT22;697;51.114;6.542;2023-04-19T04:23:52;13.40;91.00
1405;DHT22;697;51.114;6.542;2023-04-19T04:26:19;13.40;91.00
1405;DHT22;697;51.114;6.542;2023-04-19T04:28:46;13.40;91.00
1405;DHT22;697;51.114;6.542;2023-04-19T04:31:14;13.40;91.00
1405;DHT22;697;51.114;6.542;2023-04-19T04:33:42;13.50;91.20
1405;DHT22;697;51.114;6.542;2023-04-19T04:36:10;13.40;90.90
1405;DHT22;697;51.114;6.542;2023-04-19T04:38:37;13.50;91.10
1405;DHT22;697;51.114;6.542;2023-04-19T04:41:04;13.40;91.10
1405;DHT22;697;51.114;6.542;2023-04-19T04:43:30;13.40;91.40
1405;DHT22;697;51.114;6.542;2023-04-19T04:45:58;13.50;91.50
1405;DHT22;697;51.114;6.542;2023-04-19T04:48:26;13.50;91.40
1405;DHT22;697;51.114;6.542;2023-04-19T04:50:53;13.40;91.40
1405;DHT22;697;51.114;6.542;2023-04-19T04:53:20;13.50;91.50
1405;DHT22;697;51.114;6.542;2023-04-19T04:55:46;13.40;91.40
1405;DHT22;697;51.114;6.542;2023-04-19T04:58:13;13.40;91.40
1405;DHT22;697;51.114;6.542;2023-04-19T05:00:40;13.40;91.20
1405;DHT22;697;51.114;6.542;2023-04-19T05:03:06;13.40;91.30
1405;DHT22;697;51.114;6.542;2023-04-19T05:05:34;13.30;91.40
1405;DHT22;697;51.114;6.542;2023-04-19T05:08:02;13.30;91.50
1405;DHT22;697;51.114;6.542;2023-04-19T05:10:29;13.30;91.30
1405;DHT22;697;51.114;6.542;2023-04-19T05:12:56;13.40;91.40
1405;DHT22;697;51.114;6.542;2023-04-19T05:15:22;13.40;91.60
1405;DHT22;697;51.114;6.542;2023-04-19T05:17:49;13.40;91.50
1405;DHT22;697;51.114;6.542;2023-04-19T05:20:16;13.40;91.50
1405;DHT22;697;51.114;6.542;2023-04-19T05:22:44;13.40;91.40
1405;DHT22;697;51.114;6.542;2023-04-19T05:25:10;13.40;91.40
1405;DHT22;697;51.114;6.542;2023-04-19T05:27:37;13.40;91.40
1405;DHT22;697;51.114;6.542;2023-04-19T05:30:05;13.40;91.20
1405;DHT22;697;51.114;6.542;2023-04-19T05:32:32;13.40;91.10
1405;DHT22;697;51.114;6.542;2023-04-19T05:34:59;13.40;91.10
1405;DHT22;697;51.114;6.542;2023-04-19T05:37:26;13.40;90.80
1405;DHT22;697;51.114;6.542;2023-04-19T05:39:54;13.50;90.50
1405;DHT22;697;51.114;6.542;2023-04-19T05:42:22;13.40;90.50
1405;DHT22;697;51.114;6.542;2023-04-19T05:44:49;13.40;90.10
1405;DHT22;697;51.114;6.542;2023-04-19T05:47:15;13.50;90.00
1405;DHT22;697;51.114;6.542;2023-04-19T05:49:42;13.50;89.80
1405;DHT22;697;51.114;6.542;2023-04-19T05:52:09;13.50;89.20
1405;DHT22;697;51.114;6.542;2023-04-19T05:54:35;13.50;88.90
1405;DHT22;697;51.114;6.542;2023-04-19T05:57:04;13.50;88.70
1405;DHT22;697;51.114;6.542;2023-04-19T05:59:30;13.50;88.00
1405;DHT22;697;51.114;6.542;2023-04-19T06:01:57;13.50;87.30
1405;DHT22;697;51.114;6.542;2023-04-19T06:04:25;13.50;85.40
1405;DHT22;697;51.114;6.542;2023-04-19T06:06:52;13.50;84.60
1405;DHT22;697;51.114;6.542;2023-04-19T06:09:19;13.50;84.70
1405;DHT22;697;51.114;6.542;2023-04-19T06:11:45;13.50;84.40
1405;DHT22;697;51.114;6.542;2023-04-19T06:14:13;13.50;83.60
1405;DHT22;697;51.114;6.542;2023-04-19T06:16:40;13.50;83.00
1405;DHT22;697;51.114;6.542;2023-04-19T06:19:07;13.60;83.40
1405;DHT22;697;51.114;6.542;2023-04-19T06:21:34;13.60;83.00
1405;DHT22;697;51.114;6.542;2023-04-19T06:24:01;13.60;82.80
1405;DHT22;697;51.114;6.542;2023-04-19T06:26:28;13.70;82.40
1405;DHT22;697;51.114;6.542;2023-04-19T06:28:54;13.80;82.50
1405;DHT22;697;51.114;6.542;2023-04-19T06:31:22;13.80;82.30
1405;DHT22;697;51.114;6.542;2023-04-19T06:33:49;13.90;81.10
1405;DHT22;697;51.114;6.542;2023-04-19T06:36:16;13.90;81.00
1405;DHT22;697;51.114;6.542;2023-04-19T06:38:42;14.00;80.70
1405;DHT22;697;51.114;6.542;2023-04-19T06:41:10;14.10;80.70
1405;DHT22;697;51.114;6.542;2023-04-19T06:43:37;14.20;79.30
1405;DHT22;697;51.114;6.542;2023-04-19T06:46:05;14.30;79.00
1405;DHT22;697;51.114;6.542;2023-04-19T06:48:34;14.30;78.70
1405;DHT22;697;51.114;6.542;2023-04-19T06:51:00;14.40;78.20
1405;DHT22;697;51.114;6.542;2023-04-19T06:53:27;14.50;77.40
1405;DHT22;697;51.114;6.542;2023-04-19T06:55:57;14.60;76.90
1405;DHT22;697;51.114;6.542;2023-04-19T06:58:25;14.60;76.60
1405;DHT22;697;51.114;6.542;2023-04-19T07:00:52;14.70;74.90
1405;DHT22;697;51.114;6.542;2023-04-19T07:03:18;14.80;74.20
1405;DHT22;697;51.114;6.542;2023-04-19T07:05:46;14.90;74.70
1405;DHT22;697;51.114;6.542;2023-04-19T07:08:14;15.00;73.40
1405;DHT22;697;51.114;6.542;2023-04-19T07:10:41;15.20;72.60
1405;DHT22;697;51.114;6.542;2023-04-19T07:13:09;15.30;71.40
1405;DHT22;697;51.114;6.542;2023-04-19T07:15:36;15.40;71.40
1405;DHT22;697;51.114;6.542;2023-04-19T07:18:03;15.50;69.60
1405;DHT22;697;51.114;6.542;2023-04-19T07:20:29;15.60;68.70
1405;DHT22;697;51.114;6.542;2023-04-19T07:22:58;15.50;67.50
1405;DHT22;697;51.114;6.542;2023-04-19T07:25:25;15.50;68.00
1405;DHT22;697;51.114;6.542;2023-04-19T07:27:52;15.60;67.50
1405;DHT22;697;51.114;6.542;2023-04-19T07:30:19;15.60;67.00
1405;DHT22;697;51.114;6.542;2023-04-19T07:32:46;15.60;64.90
1405;DHT22;697;51.114;6.542;2023-04-19T07:35:12;15.60;65.90
1405;DHT22;697;51.114;6.542;2023-04-19T07:37:40;15.70;66.40
1405;DHT22;697;51.114;6.542;2023-04-19T07:40:10;15.70;64.60
1405;DHT22;697;51.114;6.542;2023-04-19T07:42:37;15.70;64.20
1405;DHT22;697;51.114;6.542;2023-04-19T07:45:04;15.80;64.90
1405;DHT22;697;51.114;6.542;2023-04-19T07:47:31;15.90;64.20
1405;DHT22;697;51.114;6.542;2023-04-19T07:49:58;16.00;63.20
1405;DHT22;697;51.114;6.542;2023-04-19T07:52:24;16.10;63.00
1405;DHT22;697;51.114;6.542;2023-04-19T07:54:51;16.20;62.20
1405;DHT22;697;51.114;6.542;2023-04-19T07:57:19;16.20;60.70
1405;DHT22;697;51.114;6.542;2023-04-19T07:59:46;16.30;60.90
1405;DHT22;697;51.114;6.542;2023-04-19T08:02:12;16.40;61.30
1405;DHT22;697;51.114;6.542;2023-04-19T08:04:40;16.50;61.30
1405;DHT22;697;51.114;6.542;2023-04-19T08:07:07;16.60;60.40
1405;DHT22;697;51.114;6.542;2023-04-19T08:09:34;16.80;59.90
1405;DHT22;697;51.114;6.542;2023-04-19T08:12:02;16.90;59.70
1405;DHT22;697;51.114;6.542;2023-04-19T08:14:30;17.00;59.10
1405;DHT22;697;51.114;6.542;2023-04-19T08:16:57;17.20;59.20
1405;DHT22;697;51.114;6.542;2023-04-19T08:19:23;17.40;58.60
1405;DHT22;697;51.114;6.542;2023-04-19T08:21:50;17.50;58.40
1405;DHT22;697;51.114;6.542;2023-04-19T08:24:17;17.60;57.70
1405;DHT22;697;51.114;6.542;2023-04-19T08:26:43;17.70;56.80
1405;DHT22;697;51.114;6.542;2023-04-19T08:29:17;17.90;56.40
1405;DHT22;697;51.114;6.542;2023-04-19T08:31:45;18.00;55.80
1405;DHT22;697;51.114;6.542;2023-04-19T08:34:12;18.10;55.50
1405;DHT22;697;51.114;6.542;2023-04-19T08:36:39;18.30;54.20
1405;DHT22;697;51.114;6.542;2023-04-19T08:39:06;18.30;53.20
1405;DHT22;697;51.114;6.542;2023-04-19T08:41:33;18.40;53.50
1405;DHT22;697;51.114;6.542;2023-04-19T08:44:02;18.60;53.40
1405;DHT22;697;51.114;6.542;2023-04-19T08:46:30;18.70;51.90
1405;DHT22;697;51.114;6.542;2023-04-19T08:48:58;18.80;50.70
1405;DHT22;697;51.114;6.542;2023-04-19T08:51:26;18.90;50.20
1405;DHT22;697;51.114;6.542;2023-04-19T08:53:55;18.90;50.30
1405;DHT22;697;51.114;6.542;2023-04-19T08:56:23;19.10;51.10
1405;DHT22;697;51.114;6.542;2023-04-19T08:58:50;19.10;50.20
1405;DHT22;697;51.114;6.542;2023-04-19T09:01:17;19.30;49.70
1405;DHT22;697;51.114;6.542;2023-04-19T09:03:44;19.40;48.50
1405;DHT22;697;51.114;6.542;2023-04-19T09:06:12;19.60;47.50
1405;DHT22;697;51.114;6.542;2023-04-19T09:08:39;19.70;48.00
1405;DHT22;697;51.114;6.542;2023-04-19T09:11:06;19.90;47.50
1405;DHT22;697;51.114;6.542;2023-04-19T09:13:33;20.00;46.40
1405;DHT22;697;51.114;6.542;2023-04-19T09:16:03;20.10;46.70
1405;DHT22;697;51.114;6.542;2023-04-19T09:18:29;20.10;44.90
1405;DHT22;697;51.114;6.542;2023-04-19T09:20:56;20.20;44.40
1405;DHT22;697;51.114;6.542;2023-04-19T09:23:25;20.30;43.70
1405;DHT22;697;51.114;6.542;2023-04-19T09:25:55;20.30;42.70
1405;DHT22;697;51.114;6.542;2023-04-19T09:28:22;20.30;43.80
1405;DHT22;697;51.114;6.542;2023-04-19T09:30:49;20.40;43.90
1405;DHT22;697;51.114;6.542;2023-04-19T09:33:30;20.60;42.00
1405;DHT22;697;51.114;6.542;2023-04-19T09:35:58;20.70;41.30
1405;DHT22;697;51.114;6.542;2023-04-19T09:38:27;20.80;42.10
1405;DHT22;697;51.114;6.542;2023-04-19T09:41:05;20.90;41.20
1405;DHT22;697;51.114;6.542;2023-04-19T09:43:32;21.00;41.70
1405;DHT22;697;51.114;6.542;2023-04-19T09:45:59;21.10;38.80
1405;DHT22;697;51.114;6.542;2023-04-19T09:48:26;21.10;39.10
1405;DHT22;697;51.114;6.542;2023-04-19T09:50:54;21.20;39.20
1405;DHT22;697;51.114;6.542;2023-04-19T09:53:22;21.20;39.10
1405;DHT22;697;51.114;6.542;2023-04-19T09:55:51;21.20;37.90
1405;DHT22;697;51.114;6.542;2023-04-19T09:58:19;21.30;39.00
1405;DHT22;697;51.114;6.542;2023-04-19T10:00:47;21.50;39.30
1405;DHT22;697;51.114;6.542;2023-04-19T10:03:17;21.70;37.70
1405;DHT22;697;51.114;6.542;2023-04-19T10:05:44;22.00;37.70
1405;DHT22;697;51.114;6.542;2023-04-19T10:08:12;22.30;37.70
1405;DHT22;697;51.114;6.542;2023-04-19T10:10:39;22.60;37.10
1405;DHT22;697;51.114;6.542;2023-04-19T10:13:10;22.90;35.20
1405;DHT22;697;51.114;6.542;2023-04-19T10:15:38;23.20;35.20
1405;DHT22;697;51.114;6.542;2023-04-19T10:18:07;23.50;34.70
1405;DHT22;697;51.114;6.542;2023-04-19T10:20:40;23.90;33.90
1405;DHT22;697;51.114;6.542;2023-04-19T10:23:09;24.20;32.30
1405;DHT22;697;51.114;6.542;2023-04-19T10:25:37;24.40;32.20
1405;DHT22;697;51.114;6.542;2023-04-19T10:28:04;24.70;29.80
1405;DHT22;697;51.114;6.542;2023-04-19T10:30:32;25.00;30.90
1405;DHT22;697;51.114;6.542;2023-04-19T10:33:00;25.50;30.40
1405;DHT22;697;51.114;6.542;2023-04-19T10:35:33;25.90;28.90
1405;DHT22;697;51.114;6.542;2023-04-19T10:38:03;26.30;28.50
1405;DHT22;697;51.114;6.542;2023-04-19T10:40:56;26.50;27.40
1405;DHT22;697;51.114;6.542;2023-04-19T10:43:26;26.90;26.70
1405;DHT22;697;51.114;6.542;2023-04-19T10:45:57;27.20;26.00
1405;DHT22;697;51.114;6.542;2023-04-19T10:48:50;27.30;25.10
1405;DHT22;697;51.114;6.542;2023-04-19T10:51:25;27.40;25.40
1405;DHT22;697;51.114;6.542;2023-04-19T10:53:55;27.60;25.30
1405;DHT22;697;51.114;6.542;2023-04-19T10:56:56;28.00;24.80
1405;DHT22;697;51.114;6.542;2023-04-19T10:59:23;28.50;23.80
1405;DHT22;697;51.114;6.542;2023-04-19T11:01:52;28.70;22.90
1405;DHT22;697;51.114;6.542;2023-04-19T11:04:21;28.70;23.60
1405;DHT22;697;51.114;6.542;2023-04-19T11:07:02;29.10;22.80
1405;DHT22;697;51.114;6.542;2023-04-19T11:09:31;29.40;22.50
1405;DHT22;697;51.114;6.542;2023-04-19T11:12:01;29.60;22.40
1405;DHT22;697;51.114;6.542;2023-04-19T11:14:30;29.90;22.10
1405;DHT22;697;51.114;6.542;2023-04-19T11:16:59;30.20;21.50
1405;DHT22;697;51.114;6.542;2023-04-19T11:19:26;30.50;20.40
1405;DHT22;697;51.114;6.542;2023-04-19T11:21:57;30.50;20.90
1405;DHT22;697;51.114;6.542;2023-04-19T11:24:24;30.60;20.60
1405;DHT22;697;51.114;6.542;2023-04-19T11:26:51;30.70;20.20
1405;DHT22;697;51.114;6.542;2023-04-19T11:29:18;30.90;20.50
1405;DHT22;697;51.114;6.542;2023-04-19T11:31:46;31.00;19.90
1405;DHT22;697;51.114;6.542;2023-04-19T11:34:14;31.10;20.00
1405;DHT22;697;51.114;6.542;2023-04-19T11:36:50;31.20;19.80
1405;DHT22;697;51.114;6.542;2023-04-19T11:39:17;31.40;19.80
1405;DHT22;697;51.114;6.542;2023-04-19T11:41:44;31.50;18.90
1405;DHT22;697;51.114;6.542;2023-04-19T11:44:15;31.60;19.80
1405;DHT22;697;51.114;6.542;2023-04-19T11:46:57;31.80;18.80
1405;DHT22;697;51.114;6.542;2023-04-19T11:49:29;32.10;19.70
1405;DHT22;697;51.114;6.542;2023-04-19T11:51:57;32.10;18.60
1405;DHT22;697;51.114;6.542;2023-04-19T11:54:25;32.10;19.10
1405;DHT22;697;51.114;6.542;2023-04-19T11:56:59;32.00;18.80
1405;DHT22;697;51.114;6.542;2023-04-19T11:59:28;32.00;18.40
1405;DHT22;697;51.114;6.542;2023-04-19T12:01:54;31.90;18.40
1405;DHT22;697;51.114;6.542;2023-04-19T12:04:21;32.00;19.10
1405;DHT22;697;51.114;6.542;2023-04-19T12:06:57;32.20;19.00
1405;DHT22;697;51.114;6.542;2023-04-19T12:09:25;32.50;18.30
1405;DHT22;697;51.114;6.542;2023-04-19T12:11:52;32.70;17.30
1405;DHT22;697;51.114;6.542;2023-04-19T12:14:19;32.80;17.10
1405;DHT22;697;51.114;6.542;2023-04-19T12:17:05;32.90;17.70
1405;DHT22;697;51.114;6.542;2023-04-19T12:19:36;33.30;17.70
1405;DHT22;697;51.114;6.542;2023-04-19T12:22:13;33.60;17.70
1405;DHT22;697;51.114;6.542;2023-04-19T12:24:40;34.00;16.20
1405;DHT22;697;51.114;6.542;2023-04-19T12:27:08;33.90;17.10
1405;DHT22;697;51.114;6.542;2023-04-19T12:29:35;33.90;17.70
1405;DHT22;697;51.114;6.542;2023-04-19T12:32:02;34.00;16.70
1405;DHT22;697;51.114;6.542;2023-04-19T12:34:29;34.10;16.80
1405;DHT22;697;51.114;6.542;2023-04-19T12:36:56;34.20;16.30
1405;DHT22;697;51.114;6.542;2023-04-19T12:39:25;34.60;16.70
1405;DHT22;697;51.114;6.542;2023-04-19T12:41:53;34.60;16.40
1405;DHT22;697;51.114;6.542;2023-04-19T12:44:20;34.60;16.70
1405;DHT22;697;51.114;6.542;2023-04-19T12:46:46;35.00;15.70
1405;DHT22;697;51.114;6.542;2023-04-19T12:49:13;35.10;16.10
1405;DHT22;697;51.114;6.542;2023-04-19T12:51:40;35.50;16.00
1405;DHT22;697;51.114;6.542;2023-04-19T12:54:07;35.60;15.60
1405;DHT22;697;51.114;6.542;2023-04-19T12:56:35;35.50;15.50
1405;DHT22;697;51.114;6.542;2023-04-19T12:59:02;35.40;15.50
1405;DHT22;697;51.114;6.542;2023-04-19T13:01:31;35.40;15.30
1405;DHT22;697;51.114;6.542;2023-04-19T13:03:57;35.40;16.50
1405;DHT22;697;51.114;6.542;2023-04-19T13:06:24;35.50;15.60
1405;DHT22;697;51.114;6.542;2023-04-19T13:08:52;35.50;15.20
1405;DHT22;697;51.114;6.542;2023-04-19T13:11:18;35.60;15.30
1405;DHT22;697;51.114;6.542;2023-04-19T13:13:49;35.70;15.30
1405;DHT22;697;51.114;6.542;2023-04-19T13:16:17;36.10;14.80
1405;DHT22;697;51.114;6.542;2023-04-19T13:18:43;36.50;15.20
1405;DHT22;697;51.114;6.542;2023-04-19T13:21:10;36.90;14.40
1405;DHT22;697;51.114;6.542;2023-04-19T13:23:37;37.30;13.40
1405;DHT22;697;51.114;6.542;2023-04-19T13:26:03;37.60;13.10
1405;DHT22;697;51.114;6.542;2023-04-19T13:28:30;37.70;13.90
1405;DHT22;697;51.114;6.542;2023-04-19T13:31:01;38.10;13.70
1405;DHT22;697;51.114;6.542;2023-04-19T13:33:28;38.40;13.50
1405;DHT22;697;51.114;6.542;2023-04-19T13:35:55;38.60;13.00
1405;DHT22;697;51.114;6.542;2023-04-19T13:38:21;38.90;12.50
1405;DHT22;697;51.114;6.542;2023-04-19T13:40:48;39.10;13.00
1405;DHT22;697;51.114;6.542;2023-04-19T13:43:15;39.40;13.00
1405;DHT22;697;51.114;6.542;2023-04-19T13:45:41;39.70;12.50
1405;DHT22;697;51.114;6.542;2023-04-19T13:48:09;39.60;12.40
1405;DHT22;697;51.114;6.542;2023-04-19T13:50:36;39.70;12.10
1405;DHT22;697;51.114;6.542;2023-04-19T13:53:03;39.80;12.50
1405;DHT22;697;51.114;6.542;2023-04-19T13:55:30;39.90;12.30
1405;DHT22;697;51.114;6.542;2023-04-19T13:57:56;40.10;12.30
1405;DHT22;697;51.114;6.542;2023-04-19T14:00:23;40.20;12.30
1405;DHT22;697;51.114;6.542;2023-04-19T14:02:50;40.30;11.90
1405;DHT22;697;51.114;6.542;2023-04-19T14:05:18;40.00;12.20
1405;DHT22;697;51.114;6.542;2023-04-19T14:07:45;40.10;12.40
1405;DHT22;697;51.114;6.542;2023-04-19T14:10:12;40.20;12.10
1405;DHT22;697;51.114;6.542;2023-04-19T14:12:39;40.30;12.10
1405;DHT22;697;51.114;6.542;2023-04-19T14:15:06;40.50;12.50
1405;DHT22;697;51.114;6.542;2023-04-19T14:17:33;40.70;11.90
1405;DHT22;697;51.114;6.542;2023-04-19T14:20:01;40.80;11.40
1405;DHT22;697;51.114;6.542;2023-04-19T14:22:29;40.40;11.70
1405;DHT22;697;51.114;6.542;2023-04-19T14:24:57;40.30;12.00
1405;DHT22;697;51.114;6.542;2023-04-19T14:27:24;40.40;12.10
1405;DHT22;697;51.114;6.542;2023-04-19T14:29:51;40.20;12.10
1405;DHT22;697;51.114;6.542;2023-04-19T14:32:18;40.10;11.90
1405;DHT22;697;51.114;6.542;2023-04-19T14:34:45;40.20;12.00
1405;DHT22;697;51.114;6.542;2023-04-19T14:37:12;40.30;12.50
1405;DHT22;697;51.114;6.542;2023-04-19T14:39:40;40.40;12.10
1405;DHT22;697;51.114;6.542;2023-04-19T14:42:06;40.50;11.80
1405;DHT22;697;51.114;6.542;2023-04-19T14:44:33;40.50;11.70
1405;DHT22;697;51.114;6.542;2023-04-19T14:47:00;40.40;11.70
1405;DHT22;697;51.114;6.542;2023-04-19T14:49:27;40.20;12.10
1405;DHT22;697;51.114;6.542;2023-04-19T14:51:53;40.10;12.30
1405;DHT22;697;51.114;6.542;2023-04-19T14:54:20;40.10;12.80
1405;DHT22;697;51.114;6.542;2023-04-19T14:56:49;40.10;12.30
1405;DHT22;697;51.114;6.542;2023-04-19T14:59:15;39.60;12.10
1405;DHT22;697;51.114;6.542;2023-04-19T15:01:42;38.90;11.40
1405;DHT22;697;51.114;6.542;2023-04-19T15:04:09;37.80;12.10
1405;DHT22;697;51.114;6.542;2023-04-19T15:06:35;36.90;12.50
1405;DHT22;697;51.114;6.542;2023-04-19T15:09:02;36.20;13.00
1405;DHT22;697;51.114;6.542;2023-04-19T15:11:29;35.50;13.60
1405;DHT22;697;51.114;6.542;2023-04-19T15:13:57;34.90;14.00
1405;DHT22;697;51.114;6.542;2023-04-19T15:16:24;34.90;14.10
1405;DHT22;697;51.114;6.542;2023-04-19T15:18:51;35.00;13.50
1405;DHT22;697;51.114;6.542;2023-04-19T15:21:21;34.60;13.00
1405;DHT22;697;51.114;6.542;2023-04-19T15:23:47;34.20;12.80
1405;DHT22;697;51.114;6.542;2023-04-19T15:26:14;33.80;13.50
1405;DHT22;697;51.114;6.542;2023-04-19T15:28:41;33.70;14.10
1405;DHT22;697;51.114;6.542;2023-04-19T15:31:09;33.70;13.70
1405;DHT22;697;51.114;6.542;2023-04-19T15:33:36;33.70;14.30
1405;DHT22;697;51.114;6.542;2023-04-19T15:36:03;33.50;13.80
1405;DHT22;697;51.114;6.542;2023-04-19T15:38:30;33.30;13.50
1405;DHT22;697;51.114;6.542;2023-04-19T15:40:58;33.00;13.80
1405;DHT22;697;51.114;6.542;2023-04-19T15:43:25;32.50;14.00
1405;DHT22;697;51.114;6.542;2023-04-19T15:45:52;32.20;14.50
1405;DHT22;697;51.114;6.542;2023-04-19T15:48:20;31.90;14.80
1405;DHT22;697;51.114;6.542;2023-04-19T15:50:47;31.50;15.20
1405;DHT22;697;51.114;6.542;2023-04-19T15:53:14;31.00;15.10
1405;DHT22;697;51.114;6.542;2023-04-19T15:55:41;30.60;15.10
1405;DHT22;697;51.114;6.542;2023-04-19T15:58:08;30.30;15.80
1405;DHT22;697;51.114;6.542;2023-04-19T16:00:35;30.10;16.60
1405;DHT22;697;51.114;6.542;2023-04-19T16:03:02;30.30;16.00
1405;DHT22;697;51.114;6.542;2023-04-19T16:05:30;30.20;15.70
1405;DHT22;697;51.114;6.542;2023-04-19T16:08:01;29.90;15.60
1405;DHT22;697;51.114;6.542;2023-04-19T16:10:28;29.40;16.10
1405;DHT22;697;51.114;6.542;2023-04-19T16:12:55;28.90;16.60
1405;DHT22;697;51.114;6.542;2023-04-19T16:15:22;28.60;17.10
1405;DHT22;697;51.114;6.542;2023-04-19T16:17:50;28.50;17.20
1405;DHT22;697;51.114;6.542;2023-04-19T16:20:16;28.60;17.60